createdAt,value
2018-02-13T00:00:41.599Z,7.17
2018-02-13T00:03:09.012Z,5.57
2018-02-13T00:05:36.408Z,5.30
2018-02-13T00:08:03.824Z,7.00
2018-02-13T00:10:31.224Z,9.80
2018-02-13T00:12:58.631Z,4.23
2018-02-13T00:15:26.037Z,8.20
2018-02-13T00:17:53.478Z,4.63
2018-02-13T00:20:20.882Z,16.63
2018-02-13T00:22:50.409Z,4.70
2018-02-13T00:25:17.820Z,4.60
2018-02-13T00:27:45.517Z,6.53
2018-02-13T00:30:12.917Z,4.37
2018-02-13T00:32:40.328Z,7.23
2018-02-13T00:35:07.730Z,4.87
2018-02-13T00:37:35.133Z,5.75
2018-02-13T00:40:02.558Z,5.73
2018-02-13T00:42:29.952Z,7.43
2018-02-13T00:44:57.364Z,6.53
2018-02-13T00:47:24.779Z,6.87
2018-02-13T00:49:52.181Z,7.00
2018-02-13T00:52:19.590Z,5.23
2018-02-13T00:54:47.000Z,11.88
2018-02-13T00:57:14.405Z,4.93
2018-02-13T00:59:41.817Z,5.70
2018-02-13T01:02:09.230Z,5.97
2018-02-13T01:04:36.635Z,6.57
2018-02-13T01:07:04.040Z,6.13
2018-02-13T01:09:31.464Z,4.03
2018-02-13T01:11:58.864Z,4.90
2018-02-13T01:14:26.683Z,6.43
2018-02-13T01:16:54.093Z,4.03
2018-02-13T01:19:21.504Z,13.63
2018-02-13T01:21:48.917Z,5.73
2018-02-13T01:24:16.313Z,5.60
2018-02-13T01:26:43.729Z,5.63
2018-02-13T01:29:11.140Z,7.03
2018-02-13T01:31:38.548Z,5.57
2018-02-13T01:34:05.962Z,8.43
2018-02-13T01:36:33.373Z,4.60
2018-02-13T01:39:00.781Z,6.20
2018-02-13T01:41:28.179Z,8.20
2018-02-13T01:43:55.585Z,5.63
2018-02-13T01:46:23.001Z,8.03
2018-02-13T01:48:50.404Z,5.20
2018-02-13T01:51:17.812Z,7.00
2018-02-13T01:53:45.224Z,10.00
2018-02-13T01:56:12.627Z,3.50
2018-02-13T01:58:40.037Z,6.20
2018-02-13T02:01:07.456Z,6.80
2018-02-13T02:03:34.853Z,4.10
2018-02-13T02:06:02.264Z,8.37
2018-02-13T02:08:29.667Z,7.90
2018-02-13T02:10:57.081Z,8.33
2018-02-13T02:13:24.487Z,9.20
2018-02-13T02:15:52.943Z,6.00
2018-02-13T02:18:20.342Z,7.03
2018-02-13T02:20:47.748Z,8.93
2018-02-13T02:23:15.158Z,5.60
2018-02-13T02:25:42.563Z,5.07
2018-02-13T02:28:09.980Z,7.97
2018-02-13T02:30:37.369Z,5.40
2018-02-13T02:33:04.802Z,5.30
2018-02-13T02:35:32.201Z,5.90
2018-02-13T02:37:59.610Z,6.40
2018-02-13T02:40:27.009Z,5.50
2018-02-13T02:43:06.161Z,6.32
2018-02-13T02:45:33.566Z,4.93
2018-02-13T02:48:01.012Z,7.77
2018-02-13T02:50:28.378Z,4.25
2018-02-13T02:52:55.788Z,6.35
2018-02-13T02:55:23.921Z,4.35
2018-02-13T02:57:51.324Z,8.37
2018-02-13T03:00:18.734Z,6.13
2018-02-13T03:02:46.144Z,9.70
2018-02-13T03:05:13.549Z,8.43
2018-02-13T03:07:40.960Z,10.73
2018-02-13T03:10:08.356Z,6.63
2018-02-13T03:12:35.778Z,10.07
2018-02-13T03:15:03.177Z,4.63
2018-02-13T03:17:30.591Z,8.43
2018-02-13T03:19:57.984Z,7.90
2018-02-13T03:22:25.385Z,6.57
2018-02-13T03:24:52.798Z,5.83
2018-02-13T03:27:20.238Z,6.47
2018-02-13T03:29:47.602Z,7.43
2018-02-13T03:32:15.005Z,4.47
2018-02-13T03:34:42.428Z,7.27
2018-02-13T03:37:09.828Z,7.25
2018-02-13T03:39:37.241Z,9.43
2018-02-13T03:42:04.661Z,8.77
2018-02-13T03:44:32.070Z,6.97
2018-02-13T03:46:59.473Z,8.37
2018-02-13T03:49:26.882Z,11.10
2018-02-13T03:51:54.292Z,10.82
2018-02-13T03:54:21.712Z,9.90
2018-02-13T03:56:49.117Z,5.83
2018-02-13T03:59:16.529Z,8.27
2018-02-13T04:01:43.925Z,10.80
2018-02-13T04:04:11.350Z,7.17
2018-02-13T04:06:38.748Z,7.12
2018-02-13T04:09:06.155Z,7.60
2018-02-13T04:11:33.561Z,12.77
2018-02-13T04:14:00.976Z,7.10
2018-02-13T04:16:28.380Z,9.53
2018-02-13T04:18:56.466Z,18.25
2018-02-13T04:21:23.878Z,16.40
2018-02-13T04:23:51.317Z,12.30
2018-02-13T04:26:18.712Z,9.37
2018-02-13T04:28:46.120Z,5.43
2018-02-13T04:31:13.539Z,11.55
2018-02-13T04:33:40.936Z,4.97
2018-02-13T04:36:09.046Z,9.80
2018-02-13T04:38:36.449Z,7.90
2018-02-13T04:41:03.856Z,10.83
2018-02-13T04:43:31.273Z,13.13
2018-02-13T04:45:58.689Z,19.73
2018-02-13T04:48:26.097Z,14.97
2018-02-13T04:50:53.513Z,11.27
2018-02-13T04:53:20.922Z,10.87
2018-02-13T04:55:48.336Z,9.63
2018-02-13T04:58:15.748Z,7.97
2018-02-13T05:00:43.169Z,12.53
2018-02-13T05:03:10.572Z,8.10
2018-02-13T05:05:38.012Z,8.73
2018-02-13T05:08:05.379Z,6.73
2018-02-13T05:10:32.808Z,7.22
2018-02-13T05:13:00.197Z,4.90
2018-02-13T05:15:27.880Z,5.97
2018-02-13T05:17:55.289Z,5.70
2018-02-13T05:20:22.701Z,6.18
2018-02-13T05:22:50.110Z,10.13
2018-02-13T05:25:17.524Z,5.80
2018-02-13T05:27:44.956Z,7.45
2018-02-13T05:30:12.376Z,9.43
2018-02-13T05:32:39.779Z,8.43
2018-02-13T05:35:07.889Z,8.23
2018-02-13T05:37:35.375Z,8.50
2018-02-13T05:40:02.809Z,5.05
2018-02-13T05:42:30.200Z,8.20
2018-02-13T05:44:58.605Z,8.00
2018-02-13T05:47:26.017Z,7.83
2018-02-13T05:49:54.189Z,11.23
2018-02-13T05:52:21.604Z,6.68
2018-02-13T05:54:49.000Z,9.80
2018-02-13T05:57:16.416Z,5.60
2018-02-13T05:59:43.816Z,5.20
2018-02-13T06:02:11.228Z,4.97
2018-02-13T06:04:38.639Z,5.00
2018-02-13T06:07:06.053Z,5.80
2018-02-13T06:09:33.456Z,6.57
2018-02-13T06:12:00.874Z,9.07
2018-02-13T06:14:28.275Z,6.70
2018-02-13T06:16:55.696Z,5.57
2018-02-13T06:19:23.098Z,6.80
2018-02-13T06:21:50.508Z,7.00
2018-02-13T06:24:17.909Z,3.80
2018-02-13T06:26:45.328Z,8.17
2018-02-13T06:29:13.192Z,3.93
2018-02-13T06:31:40.605Z,10.37
2018-02-13T06:34:08.014Z,5.33
2018-02-13T06:36:35.420Z,5.77
2018-02-13T06:39:02.817Z,7.03
2018-02-13T06:41:30.244Z,4.73
2018-02-13T06:43:57.649Z,6.00
2018-02-13T06:46:25.048Z,4.13
2018-02-13T06:48:52.457Z,8.80
2018-02-13T06:51:19.860Z,6.67
2018-02-13T06:53:47.272Z,4.90
2018-02-13T06:56:14.672Z,11.17
2018-02-13T06:58:42.084Z,6.87
2018-02-13T07:01:09.493Z,7.20
2018-02-13T07:03:36.908Z,4.47
2018-02-13T07:06:04.304Z,6.60
2018-02-13T07:08:31.721Z,12.47
2018-02-13T07:10:59.121Z,8.33
2018-02-13T07:13:26.546Z,6.80
2018-02-13T07:15:53.952Z,6.93
2018-02-13T07:18:21.347Z,4.87
2018-02-13T07:20:49.522Z,9.93
2018-02-13T07:23:16.933Z,9.03
2018-02-13T07:25:44.340Z,6.72
2018-02-13T07:28:11.763Z,8.10
2018-02-13T07:30:39.157Z,6.27
2018-02-13T07:33:06.572Z,5.80
2018-02-13T07:35:33.980Z,7.30
2018-02-13T07:38:01.969Z,4.72
2018-02-13T07:40:29.376Z,4.00
2018-02-13T07:42:57.409Z,10.77
2018-02-13T07:45:24.799Z,6.10
2018-02-13T07:47:52.197Z,6.07
2018-02-13T07:50:19.609Z,6.97
2018-02-13T07:52:47.008Z,5.00
2018-02-13T07:55:14.412Z,4.40
2018-02-13T07:57:41.809Z,5.03
2018-02-13T08:00:09.225Z,4.70
2018-02-13T08:02:36.625Z,4.77
2018-02-13T08:05:04.029Z,4.90
2018-02-13T08:07:31.438Z,9.27
2018-02-13T08:09:58.857Z,5.23
2018-02-13T08:12:26.836Z,4.70
2018-02-13T08:14:54.244Z,4.90
2018-02-13T08:17:21.639Z,8.53
2018-02-13T08:19:49.048Z,6.60
2018-02-13T08:22:16.445Z,5.53
2018-02-13T08:24:43.847Z,7.33
2018-02-13T08:27:11.254Z,12.65
2018-02-13T08:29:38.679Z,6.33
2018-02-13T08:32:06.080Z,10.13
2018-02-13T08:34:33.700Z,4.30
2018-02-13T08:37:01.101Z,11.00
2018-02-13T08:39:28.514Z,4.23
2018-02-13T08:41:55.912Z,8.90
2018-02-13T08:44:23.316Z,6.00
2018-02-13T08:46:50.724Z,7.90
2018-02-13T08:49:18.131Z,3.87
2018-02-13T08:51:45.536Z,7.00
2018-02-13T08:54:12.950Z,5.00
2018-02-13T08:56:40.349Z,5.93
2018-02-13T08:59:07.748Z,4.23
2018-02-13T09:01:35.161Z,5.87
2018-02-13T09:04:02.565Z,6.50
2018-02-13T09:06:29.980Z,4.90
2018-02-13T09:08:57.372Z,8.07
2018-02-13T09:11:24.782Z,12.57
2018-02-13T09:13:52.180Z,9.53
2018-02-13T09:16:19.588Z,5.70
2018-02-13T09:18:46.976Z,3.15
2018-02-13T09:21:14.384Z,4.80
2018-02-13T09:23:41.780Z,7.33
2018-02-13T09:26:09.187Z,3.28
2018-02-13T09:28:36.597Z,4.40
2018-02-13T09:31:04.003Z,4.70
2018-02-13T09:33:31.396Z,3.70
2018-02-13T09:35:58.800Z,5.20
2018-02-13T09:38:26.200Z,3.80
2018-02-13T09:40:53.601Z,6.03
2018-02-13T09:43:20.999Z,2.53
2018-02-13T09:45:48.457Z,7.27
2018-02-13T09:48:15.805Z,5.53
2018-02-13T09:50:43.211Z,2.40
2018-02-13T09:53:10.610Z,4.87
2018-02-13T09:55:38.012Z,3.23
2018-02-13T09:58:05.413Z,5.05
2018-02-13T10:00:32.846Z,6.73
2018-02-13T10:03:00.244Z,3.20
2018-02-13T10:05:27.639Z,4.25
2018-02-13T10:07:55.044Z,5.70
2018-02-13T10:10:22.444Z,2.90
2018-02-13T10:12:49.852Z,2.83
2018-02-13T10:15:17.248Z,4.97
2018-02-13T10:17:44.665Z,1.90
2018-02-13T10:20:12.064Z,5.25
2018-02-13T10:22:39.464Z,6.03
2018-02-13T10:25:07.547Z,5.20
2018-02-13T10:27:34.953Z,5.50
2018-02-13T10:30:02.353Z,3.13
2018-02-13T10:32:29.765Z,4.70
2018-02-13T10:34:57.160Z,3.03
2018-02-13T10:37:24.580Z,1.60
2018-02-13T10:39:51.980Z,4.13
2018-02-13T10:42:19.396Z,2.10
2018-02-13T10:44:46.789Z,4.77
2018-02-13T10:47:14.200Z,3.12
2018-02-13T10:49:41.604Z,2.70
2018-02-13T10:52:09.016Z,3.37
2018-02-13T10:54:36.416Z,1.90
2018-02-13T10:57:03.830Z,2.03
2018-02-13T10:59:32.544Z,2.50
2018-02-13T11:02:05.588Z,4.10
2018-02-13T11:04:32.991Z,2.27
2018-02-13T11:07:00.401Z,4.50
2018-02-13T11:09:27.816Z,2.40
2018-02-13T11:11:55.216Z,1.62
2018-02-13T11:14:22.617Z,2.73
2018-02-13T11:16:50.794Z,2.67
2018-02-13T11:19:19.113Z,3.00
2018-02-13T11:21:46.512Z,1.35
2018-02-13T11:24:13.918Z,3.83
2018-02-13T11:26:41.316Z,1.90
2018-02-13T11:29:09.827Z,1.40
2018-02-13T11:31:37.222Z,2.80
2018-02-13T11:34:04.634Z,2.77
2018-02-13T11:36:32.024Z,5.23
2018-02-13T11:38:59.436Z,5.07
2018-02-13T11:41:26.831Z,3.50
2018-02-13T11:43:54.245Z,4.03
2018-02-13T11:46:21.644Z,2.35
2018-02-13T11:48:49.054Z,6.07
2018-02-13T11:51:16.449Z,5.53
2018-02-13T11:53:43.865Z,3.10
2018-02-13T11:56:11.252Z,3.87
2018-02-13T11:58:38.661Z,2.30
2018-02-13T12:01:06.059Z,2.70
2018-02-13T12:03:33.466Z,3.10
2018-02-13T12:06:00.877Z,5.73
2018-02-13T12:08:28.285Z,2.70
2018-02-13T12:10:55.681Z,3.45
2018-02-13T12:13:23.110Z,3.80
2018-02-13T12:15:50.514Z,3.17
2018-02-13T12:18:17.904Z,3.47
2018-02-13T12:20:45.354Z,3.90
2018-02-13T12:23:13.045Z,3.80
2018-02-13T12:25:42.270Z,6.00
2018-02-13T12:28:09.659Z,2.73
2018-02-13T12:30:37.067Z,2.90
2018-02-13T12:33:04.476Z,4.15
2018-02-13T12:35:31.883Z,4.00
2018-02-13T12:37:59.285Z,7.03
2018-02-13T12:40:26.696Z,3.30
2018-02-13T12:42:54.099Z,9.02
2018-02-13T12:45:21.497Z,4.20
2018-02-13T12:47:48.897Z,2.20
2018-02-13T12:50:16.310Z,3.25
2018-02-13T12:52:43.715Z,2.40
2018-02-13T12:55:11.114Z,2.87
2018-02-13T12:57:38.505Z,4.30
2018-02-13T13:00:05.907Z,2.55
2018-02-13T13:02:33.319Z,3.00
2018-02-13T13:05:00.722Z,3.10
2018-02-13T13:07:28.120Z,2.28
2018-02-13T13:09:55.538Z,3.13
2018-02-13T13:12:22.935Z,1.87
2018-02-13T13:14:50.325Z,2.87
2018-02-13T13:17:17.729Z,2.90
2018-02-13T13:19:45.121Z,3.30
2018-02-13T13:22:12.542Z,2.63
2018-02-13T13:24:39.937Z,2.37
2018-02-13T13:27:07.340Z,2.50
2018-02-13T13:29:34.743Z,1.70
2018-02-13T13:32:02.145Z,1.90
2018-02-13T13:34:29.538Z,1.83
2018-02-13T13:36:56.944Z,1.93
2018-02-13T13:39:24.334Z,4.20
2018-02-13T13:41:51.798Z,2.30
2018-02-13T13:44:19.189Z,6.40
2018-02-13T13:46:46.597Z,3.80
2018-02-13T13:49:13.990Z,3.97
2018-02-13T13:51:41.392Z,3.97
2018-02-13T13:54:08.792Z,2.57
2018-02-13T13:56:36.195Z,3.10
2018-02-13T13:59:03.584Z,5.00
2018-02-13T14:01:30.989Z,4.40
2018-02-13T14:03:58.388Z,3.30
2018-02-13T14:06:25.800Z,1.80
2018-02-13T14:08:53.188Z,2.37
2018-02-13T14:11:20.598Z,2.93
2018-02-13T14:13:48.696Z,3.42
2018-02-13T14:16:16.100Z,3.27
2018-02-13T14:18:43.951Z,4.43
2018-02-13T14:21:11.377Z,5.13
2018-02-13T14:23:38.769Z,2.60
2018-02-13T14:26:06.171Z,2.90
2018-02-13T14:28:33.577Z,5.20
2018-02-13T14:31:00.969Z,3.43
2018-02-13T14:33:28.371Z,3.77
2018-02-13T14:35:56.098Z,4.20
2018-02-13T14:38:23.494Z,2.87
2018-02-13T14:40:50.897Z,2.40
2018-02-13T14:43:18.296Z,4.70
2018-02-13T14:45:45.701Z,3.40
2018-02-13T14:48:13.452Z,5.40
2018-02-13T14:50:40.859Z,2.67
2018-02-13T14:53:08.260Z,2.10
2018-02-13T14:55:35.685Z,4.90
2018-02-13T14:58:03.073Z,2.73
2018-02-13T15:00:30.481Z,3.87
2018-02-13T15:02:57.870Z,2.67
2018-02-13T15:05:25.293Z,5.13
2018-02-13T15:07:52.669Z,3.07
2018-02-13T15:10:20.072Z,3.30
2018-02-13T15:12:47.481Z,4.45
2018-02-13T15:15:15.196Z,2.30
2018-02-13T15:17:52.497Z,4.40
2018-02-13T15:20:19.887Z,2.65
2018-02-13T15:22:47.288Z,2.10
2018-02-13T15:25:14.683Z,2.50
2018-02-13T15:27:42.073Z,2.93
2018-02-13T15:30:09.482Z,2.00
2018-02-13T15:32:36.872Z,2.70
2018-02-13T15:35:04.281Z,5.57
2018-02-13T15:37:31.676Z,3.83
2018-02-13T15:39:59.088Z,3.60
2018-02-13T15:42:26.480Z,3.60
2018-02-13T15:44:54.101Z,6.80
2018-02-13T15:47:21.498Z,2.93
2018-02-13T15:49:48.900Z,2.45
2018-02-13T15:52:16.305Z,4.83
2018-02-13T15:54:43.700Z,7.40
2018-02-13T15:57:11.105Z,3.95
2018-02-13T15:59:38.509Z,6.77
2018-02-13T16:02:05.908Z,4.53
2018-02-13T16:04:33.312Z,4.03
2018-02-13T16:07:00.713Z,6.00
2018-02-13T16:09:28.112Z,2.83
2018-02-13T16:11:55.513Z,6.07
2018-02-13T16:14:23.760Z,4.85
2018-02-13T16:16:51.213Z,6.40
2018-02-13T16:19:18.553Z,5.67
2018-02-13T16:21:45.964Z,7.60
2018-02-13T16:24:13.373Z,15.03
2018-02-13T16:26:40.774Z,3.40
2018-02-13T16:29:08.172Z,3.90
2018-02-13T16:31:35.577Z,10.20
2018-02-13T16:34:03.030Z,7.15
2018-02-13T16:36:30.387Z,4.13
2018-02-13T16:38:57.780Z,4.20
2018-02-13T16:41:25.184Z,6.20
2018-02-13T16:43:52.643Z,5.73
2018-02-13T16:46:19.983Z,7.30
2018-02-13T16:48:47.383Z,7.80
2018-02-13T16:51:14.788Z,5.80
2018-02-13T16:53:42.183Z,7.10
2018-02-13T16:56:09.591Z,5.53
2018-02-13T16:58:36.992Z,6.53
2018-02-13T17:01:04.400Z,6.80
2018-02-13T17:03:31.784Z,4.90
2018-02-13T17:05:59.187Z,6.93
2018-02-13T17:08:26.575Z,7.20
2018-02-13T17:10:53.983Z,10.53
2018-02-13T17:13:21.380Z,14.00
2018-02-13T17:15:48.798Z,11.60
2018-02-13T17:18:16.189Z,9.27
2018-02-13T17:20:43.604Z,13.13
2018-02-13T17:23:11.001Z,5.63
2018-02-13T17:25:38.409Z,6.43
2018-02-13T17:28:05.807Z,9.47
2018-02-13T17:30:33.232Z,7.43
2018-02-13T17:33:00.621Z,6.73
2018-02-13T17:35:28.019Z,7.80
2018-02-13T17:37:56.104Z,12.65
2018-02-13T17:40:23.505Z,6.03
2018-02-13T17:42:50.903Z,8.50
2018-02-13T17:45:18.292Z,7.30
2018-02-13T17:47:45.701Z,7.43
2018-02-13T17:50:13.101Z,5.93
2018-02-13T17:52:41.408Z,6.30
2018-02-13T17:55:09.591Z,6.00
2018-02-13T17:57:36.991Z,8.80
2018-02-13T18:00:04.384Z,5.70
2018-02-13T18:02:31.787Z,6.17
2018-02-13T18:04:59.189Z,7.63
2018-02-13T18:07:27.024Z,7.50
2018-02-13T18:09:54.915Z,6.80
2018-02-13T18:12:22.318Z,13.83
2018-02-13T18:14:49.717Z,10.07
2018-02-13T18:17:17.756Z,10.85
2018-02-13T18:19:45.144Z,6.85
2018-02-13T18:22:12.567Z,10.83
2018-02-13T18:24:39.974Z,9.23
2018-02-13T18:27:07.372Z,9.27
2018-02-13T18:29:34.769Z,8.50
2018-02-13T18:32:02.184Z,10.13
2018-02-13T18:34:29.580Z,8.80
2018-02-13T18:36:57.978Z,10.65
2018-02-13T18:39:25.391Z,10.50
2018-02-13T18:41:52.777Z,9.38
2018-02-13T18:44:20.174Z,9.50
2018-02-13T18:46:47.572Z,8.13
2018-02-13T18:49:14.971Z,8.70
2018-02-13T18:51:42.377Z,11.00
2018-02-13T18:54:09.788Z,13.73
2018-02-13T18:56:37.180Z,8.65
2018-02-13T18:59:04.585Z,8.77
2018-02-13T19:01:31.981Z,12.90
2018-02-13T19:03:59.384Z,9.23
2018-02-13T19:06:26.785Z,12.93
2018-02-13T19:08:54.836Z,9.93
2018-02-13T19:11:22.225Z,10.50
2018-02-13T19:13:49.641Z,13.57
2018-02-13T19:16:17.035Z,9.40
2018-02-13T19:18:44.445Z,13.33
2018-02-13T19:21:11.853Z,8.60
2018-02-13T19:23:39.261Z,9.73
2018-02-13T19:26:06.660Z,11.40
2018-02-13T19:28:34.074Z,8.95
2018-02-13T19:31:01.478Z,10.53
2018-02-13T19:33:29.379Z,7.93
2018-02-13T19:35:56.783Z,8.47
2018-02-13T19:38:24.200Z,10.70
2018-02-13T19:40:51.601Z,10.67
2018-02-13T19:43:19.019Z,9.63
2018-02-13T19:45:46.425Z,9.95
2018-02-13T19:48:13.828Z,10.40
2018-02-13T19:50:41.242Z,9.33
2018-02-13T19:53:08.643Z,9.87
2018-02-13T19:55:36.055Z,10.50
2018-02-13T19:58:03.456Z,7.93
2018-02-13T20:00:30.864Z,11.55
2018-02-13T20:02:58.263Z,7.23
2018-02-13T20:05:25.677Z,17.27
2018-02-13T20:07:53.083Z,9.27
2018-02-13T20:10:20.498Z,8.20
2018-02-13T20:12:47.898Z,10.60
2018-02-13T20:15:15.304Z,10.80
2018-02-13T20:17:42.705Z,10.83
2018-02-13T20:20:10.116Z,9.53
2018-02-13T20:22:37.524Z,11.07
2018-02-13T20:25:04.935Z,8.53
2018-02-13T20:27:32.332Z,9.17
2018-02-13T20:29:59.743Z,9.60
2018-02-13T20:32:27.150Z,10.97
2018-02-13T20:34:54.869Z,10.17
2018-02-13T20:37:22.276Z,10.10
2018-02-13T20:39:49.681Z,14.43
2018-02-13T20:42:17.076Z,10.80
2018-02-13T20:44:44.477Z,9.80
2018-02-13T20:47:11.885Z,9.73
2018-02-13T20:49:39.293Z,11.43
2018-02-13T20:52:06.704Z,10.90
2018-02-13T20:54:34.121Z,11.80
2018-02-13T20:57:01.831Z,12.10
2018-02-13T20:59:29.249Z,15.37
2018-02-13T21:01:56.648Z,11.30
2018-02-13T21:04:24.049Z,17.47
2018-02-13T21:06:51.460Z,13.40
2018-02-13T21:09:18.871Z,13.40
2018-02-13T21:11:46.279Z,13.03
2018-02-13T21:14:13.683Z,13.83
2018-02-13T21:16:41.101Z,13.83
2018-02-13T21:19:08.518Z,14.50
2018-02-13T21:21:36.155Z,18.10
2018-02-13T21:24:03.564Z,18.40
2018-02-13T21:26:30.980Z,11.30
2018-02-13T21:28:58.412Z,14.63
2018-02-13T21:31:27.029Z,13.53
2018-02-13T21:33:54.440Z,14.60
2018-02-13T21:36:21.854Z,13.45
2018-02-13T21:38:49.265Z,13.43
2018-02-13T21:41:16.693Z,11.82
2018-02-13T21:43:44.096Z,17.62
2018-02-13T21:46:11.509Z,12.27
2018-02-13T21:48:38.908Z,15.00
2018-02-13T21:51:06.327Z,13.32
2018-02-13T21:53:34.269Z,16.30
2018-02-13T21:56:01.687Z,17.00
2018-02-13T21:58:29.100Z,14.77
2018-02-13T22:02:38.978Z,14.50
2018-02-13T22:05:06.401Z,14.63
2018-02-13T22:07:34.115Z,13.57
2018-02-13T22:10:01.538Z,16.47
2018-02-13T22:12:28.988Z,13.30
2018-02-13T22:14:56.472Z,15.87
2018-02-13T22:17:23.905Z,15.17
2018-02-13T22:19:51.325Z,14.63
2018-02-13T22:22:19.190Z,13.30
2018-02-13T22:24:46.613Z,14.83
2018-02-13T22:27:14.060Z,21.07
2018-02-13T22:29:41.465Z,14.50
2018-02-13T22:32:08.914Z,18.03
2018-02-13T22:34:36.322Z,14.40
2018-02-13T22:37:03.750Z,15.10
2018-02-13T22:39:31.187Z,15.20
2018-02-13T22:41:58.604Z,19.00
2018-02-13T22:44:26.076Z,15.97
2018-02-13T22:46:53.533Z,18.80
2018-02-13T22:49:20.961Z,17.40
2018-02-13T22:51:48.394Z,14.38
2018-02-13T22:54:15.846Z,20.33
2018-02-13T22:56:43.257Z,12.77
2018-02-13T22:59:10.681Z,14.95
2018-02-13T23:01:38.147Z,16.70
2018-02-13T23:04:06.029Z,24.37
2018-02-13T23:06:33.441Z,23.63
2018-02-13T23:09:00.868Z,24.97
2018-02-13T23:11:28.291Z,26.53
2018-02-13T23:13:55.715Z,17.23
2018-02-13T23:16:23.148Z,17.90
2018-02-13T23:18:50.575Z,22.23
2018-02-13T23:21:17.985Z,13.63
2018-02-13T23:23:45.417Z,19.30
2018-02-13T23:26:12.868Z,18.30
2018-02-13T23:28:40.280Z,13.80
2018-02-13T23:31:07.737Z,14.83
2018-02-13T23:33:35.183Z,15.77
2018-02-13T23:36:02.600Z,16.60
2018-02-13T23:38:30.029Z,20.33
2018-02-13T23:40:57.444Z,18.40
2018-02-13T23:43:24.866Z,16.87
2018-02-13T23:45:52.291Z,22.50
2018-02-13T23:48:19.736Z,18.30
2018-02-13T23:50:47.166Z,22.23
2018-02-13T23:53:14.577Z,20.33
2018-02-13T23:55:42.005Z,21.00
2018-02-13T23:58:09.466Z,18.70
